sensor_id;sensor_type;location;lat;lon;timestamp;P1;durP1;ratioP1;P2;durP2;ratioP2
35562;SDS011;21665;40.108;18.302;2023-03-01T00:01:37;38.80;;;8.65;;
35562;SDS011;21665;40.108;18.302;2023-03-01T00:04:03;29.83;;;7.78;;
35562;SDS011;21665;40.108;18.302;2023-03-01T00:06:30;32.90;;;6.82;;
35562;SDS011;21665;40.108;18.302;2023-03-01T00:08:57;30.33;;;7.32;;
35562;SDS011;21665;40.108;18.302;2023-03-01T00:11:27;30.55;;;7.18;;
35562;SDS011;21665;40.108;18.302;2023-03-01T00:13:56;26.15;;;7.65;;
35562;SDS011;21665;40.108;18.302;2023-03-01T00:16:31;28.25;;;8.55;;
35562;SDS011;21665;40.108;18.302;2023-03-01T00:19:00;33.90;;;8.55;;
35562;SDS011;21665;40.108;18.302;2023-03-01T00:21:31;24.20;;;7.80;;
35562;SDS011;21665;40.108;18.302;2023-03-01T00:23:57;35.97;;;9.90;;
35562;SDS011;21665;40.108;18.302;2023-03-01T00:26:24;44.85;;;9.43;;
35562;SDS011;21665;40.108;18.302;2023-03-01T00:28:51;36.63;;;9.48;;
35562;SDS011;21665;40.108;18.302;2023-03-01T00:31:19;28.60;;;7.90;;
35562;SDS011;21665;40.108;18.302;2023-03-01T00:33:56;39.72;;;8.85;;
35562;SDS011;21665;40.108;18.302;2023-03-01T00:36:28;40.70;;;8.68;;
35562;SDS011;21665;40.108;18.302;2023-03-01T00:38:59;26.95;;;7.95;;
35562;SDS011;21665;40.108;18.302;2023-03-01T00:41:25;30.02;;;8.55;;
35562;SDS011;21665;40.108;18.302;2023-03-01T00:43:52;23.40;;;7.25;;
35562;SDS011;21665;40.108;18.302;2023-03-01T00:46:20;36.30;;;8.73;;
35562;SDS011;21665;40.108;18.302;2023-03-01T00:48:49;39.47;;;11.98;;
35562;SDS011;21665;40.108;18.302;2023-03-01T00:51:16;36.17;;;7.68;;
35562;SDS011;21665;40.108;18.302;2023-03-01T00:53:45;27.67;;;8.88;;
35562;SDS011;21665;40.108;18.302;2023-03-01T00:56:12;32.88;;;6.80;;
35562;SDS011;21665;40.108;18.302;2023-03-01T01:51:09;39.15;;;10.68;;
35562;SDS011;21665;40.108;18.302;2023-03-01T02:09:24;35.83;;;8.05;;
35562;SDS011;21665;40.108;18.302;2023-03-01T02:18:34;41.55;;;9.07;;
35562;SDS011;21665;40.108;18.302;2023-03-01T02:31:43;68.90;;;16.77;;
35562;SDS011;21665;40.108;18.302;2023-03-01T02:34:24;72.03;;;19.02;;
35562;SDS011;21665;40.108;18.302;2023-03-01T02:37:00;65.40;;;21.02;;
35562;SDS011;21665;40.108;18.302;2023-03-01T02:39:38;77.05;;;21.98;;
35562;SDS011;21665;40.108;18.302;2023-03-01T02:49:34;79.05;;;25.15;;
35562;SDS011;21665;40.108;18.302;2023-03-01T02:55:40;82.72;;;26.42;;
35562;SDS011;21665;40.108;18.302;2023-03-01T02:59:05;83.25;;;25.25;;
35562;SDS011;21665;40.108;18.302;2023-03-01T03:02:24;94.45;;;27.45;;
35562;SDS011;21665;40.108;18.302;2023-03-01T03:09:14;79.13;;;24.75;;
35562;SDS011;21665;40.108;18.302;2023-03-01T03:16:23;78.93;;;24.00;;
35562;SDS011;21665;40.108;18.302;2023-03-01T03:23:20;88.80;;;26.40;;
35562;SDS011;21665;40.108;18.302;2023-03-01T03:26:04;70.97;;;25.88;;
35562;SDS011;21665;40.108;18.302;2023-03-01T03:33:31;91.85;;;25.88;;
35562;SDS011;21665;40.108;18.302;2023-03-01T03:37:02;97.30;;;29.27;;
35562;SDS011;21665;40.108;18.302;2023-03-01T04:43:58;97.20;;;34.83;;
35562;SDS011;21665;40.108;18.302;2023-03-01T04:47:15;97.72;;;32.10;;
35562;SDS011;21665;40.108;18.302;2023-03-01T04:59:02;91.32;;;33.17;;
35562;SDS011;21665;40.108;18.302;2023-03-01T05:43:55;96.38;;;33.53;;
35562;SDS011;21665;40.108;18.302;2023-03-01T05:53:20;95.95;;;34.28;;
35562;SDS011;21665;40.108;18.302;2023-03-01T05:55:47;116.78;;;36.17;;
35562;SDS011;21665;40.108;18.302;2023-03-01T05:58:19;100.60;;;36.88;;
35562;SDS011;21665;40.108;18.302;2023-03-01T06:00:46;100.18;;;33.75;;
35562;SDS011;21665;40.108;18.302;2023-03-01T06:03:17;101.90;;;34.00;;
35562;SDS011;21665;40.108;18.302;2023-03-01T06:05:59;107.78;;;36.92;;
35562;SDS011;21665;40.108;18.302;2023-03-01T06:27:47;108.35;;;36.45;;
35562;SDS011;21665;40.108;18.302;2023-03-01T06:31:04;94.97;;;32.85;;
35562;SDS011;21665;40.108;18.302;2023-03-01T06:36:37;102.47;;;33.28;;
35562;SDS011;21665;40.108;18.302;2023-03-01T06:42:48;95.15;;;34.70;;
35562;SDS011;21665;40.108;18.302;2023-03-01T06:45:15;92.13;;;33.85;;
35562;SDS011;21665;40.108;18.302;2023-03-01T06:47:43;111.65;;;37.03;;
35562;SDS011;21665;40.108;18.302;2023-03-01T06:50:10;97.55;;;36.03;;
35562;SDS011;21665;40.108;18.302;2023-03-01T06:52:38;86.63;;;34.15;;
35562;SDS011;21665;40.108;18.302;2023-03-01T06:55:05;100.25;;;33.45;;
35562;SDS011;21665;40.108;18.302;2023-03-01T06:57:32;95.85;;;35.75;;
35562;SDS011;21665;40.108;18.302;2023-03-01T06:59:59;101.60;;;33.13;;
35562;SDS011;21665;40.108;18.302;2023-03-01T07:02:25;111.22;;;36.95;;
35562;SDS011;21665;40.108;18.302;2023-03-01T07:04:52;103.75;;;36.00;;
35562;SDS011;21665;40.108;18.302;2023-03-01T07:07:18;102.18;;;35.20;;
35562;SDS011;21665;40.108;18.302;2023-03-01T07:12:40;104.93;;;37.63;;
35562;SDS011;21665;40.108;18.302;2023-03-01T07:15:08;100.38;;;38.55;;
35562;SDS011;21665;40.108;18.302;2023-03-01T07:17:35;107.55;;;37.65;;
35562;SDS011;21665;40.108;18.302;2023-03-01T07:20:02;116.00;;;35.42;;
35562;SDS011;21665;40.108;18.302;2023-03-01T07:22:29;115.13;;;37.30;;
35562;SDS011;21665;40.108;18.302;2023-03-01T07:27:55;112.78;;;38.25;;
35562;SDS011;21665;40.108;18.302;2023-03-01T07:30:21;111.22;;;37.40;;
35562;SDS011;21665;40.108;18.302;2023-03-01T07:32:51;100.57;;;37.00;;
35562;SDS011;21665;40.108;18.302;2023-03-01T07:35:17;119.20;;;39.03;;
35562;SDS011;21665;40.108;18.302;2023-03-01T07:37:44;103.10;;;39.88;;
35562;SDS011;21665;40.108;18.302;2023-03-01T07:40:10;120.32;;;39.35;;
35562;SDS011;21665;40.108;18.302;2023-03-01T07:42:37;126.07;;;47.20;;
35562;SDS011;21665;40.108;18.302;2023-03-01T07:45:10;122.70;;;43.65;;
35562;SDS011;21665;40.108;18.302;2023-03-01T07:47:39;153.40;;;49.28;;
35562;SDS011;21665;40.108;18.302;2023-03-01T07:50:05;121.70;;;46.67;;
35562;SDS011;21665;40.108;18.302;2023-03-01T07:52:32;115.30;;;43.60;;
35562;SDS011;21665;40.108;18.302;2023-03-01T07:54:59;117.50;;;45.95;;
35562;SDS011;21665;40.108;18.302;2023-03-01T07:57:25;123.10;;;45.45;;
35562;SDS011;21665;40.108;18.302;2023-03-01T07:59:51;118.05;;;43.67;;
35562;SDS011;21665;40.108;18.302;2023-03-01T08:02:18;107.80;;;42.60;;
35562;SDS011;21665;40.108;18.302;2023-03-01T08:04:45;117.43;;;44.22;;
35562;SDS011;21665;40.108;18.302;2023-03-01T08:07:11;118.72;;;44.40;;
35562;SDS011;21665;40.108;18.302;2023-03-01T08:09:38;107.07;;;41.35;;
35562;SDS011;21665;40.108;18.302;2023-03-01T08:12:05;116.38;;;41.22;;
35562;SDS011;21665;40.108;18.302;2023-03-01T08:14:32;103.80;;;35.00;;
35562;SDS011;21665;40.108;18.302;2023-03-01T08:16:58;90.38;;;30.95;;
35562;SDS011;21665;40.108;18.302;2023-03-01T08:19:25;93.18;;;32.00;;
35562;SDS011;21665;40.108;18.302;2023-03-01T08:21:54;81.53;;;30.33;;
35562;SDS011;21665;40.108;18.302;2023-03-01T08:24:23;95.93;;;30.60;;
35562;SDS011;21665;40.108;18.302;2023-03-01T08:26:50;90.18;;;30.73;;
35562;SDS011;21665;40.108;18.302;2023-03-01T08:29:17;83.53;;;29.92;;
35562;SDS011;21665;40.108;18.302;2023-03-01T08:31:43;89.00;;;30.10;;
35562;SDS011;21665;40.108;18.302;2023-03-01T08:34:11;88.13;;;29.10;;
35562;SDS011;21665;40.108;18.302;2023-03-01T08:36:41;80.82;;;28.98;;
35562;SDS011;21665;40.108;18.302;2023-03-01T08:39:10;72.72;;;28.90;;
35562;SDS011;21665;40.108;18.302;2023-03-01T08:41:40;82.80;;;29.88;;
35562;SDS011;21665;40.108;18.302;2023-03-01T08:44:07;65.22;;;29.75;;
35562;SDS011;21665;40.108;18.302;2023-03-01T08:46:37;64.60;;;27.20;;
35562;SDS011;21665;40.108;18.302;2023-03-01T08:49:26;63.67;;;28.85;;
35562;SDS011;21665;40.108;18.302;2023-03-01T08:52:13;70.32;;;29.38;;
35562;SDS011;21665;40.108;18.302;2023-03-01T08:57:24;71.53;;;26.42;;
35562;SDS011;21665;40.108;18.302;2023-03-01T08:59:50;64.93;;;25.65;;
35562;SDS011;21665;40.108;18.302;2023-03-01T09:02:19;66.53;;;25.33;;
35562;SDS011;21665;40.108;18.302;2023-03-01T09:04:46;67.60;;;25.92;;
35562;SDS011;21665;40.108;18.302;2023-03-01T09:10:28;72.18;;;24.23;;
35562;SDS011;21665;40.108;18.302;2023-03-01T09:14:10;66.18;;;23.65;;
35562;SDS011;21665;40.108;18.302;2023-03-01T09:16:42;59.17;;;24.83;;
35562;SDS011;21665;40.108;18.302;2023-03-01T09:19:14;59.65;;;23.70;;
35562;SDS011;21665;40.108;18.302;2023-03-01T09:21:49;66.32;;;24.48;;
35562;SDS011;21665;40.108;18.302;2023-03-01T09:24:41;62.60;;;24.00;;
35562;SDS011;21665;40.108;18.302;2023-03-01T09:27:09;57.58;;;23.63;;
35562;SDS011;21665;40.108;18.302;2023-03-01T09:32:29;83.63;;;25.58;;
35562;SDS011;21665;40.108;18.302;2023-03-01T09:34:56;62.95;;;24.33;;
35562;SDS011;21665;40.108;18.302;2023-03-01T09:37:37;60.47;;;24.42;;
35562;SDS011;21665;40.108;18.302;2023-03-01T09:40:11;61.22;;;24.30;;
35562;SDS011;21665;40.108;18.302;2023-03-01T09:42:51;57.78;;;24.88;;
35562;SDS011;21665;40.108;18.302;2023-03-01T09:48:04;59.08;;;23.27;;
35562;SDS011;21665;40.108;18.302;2023-03-01T09:50:39;65.90;;;23.70;;
35562;SDS011;21665;40.108;18.302;2023-03-01T09:53:19;68.95;;;21.83;;
35562;SDS011;21665;40.108;18.302;2023-03-01T09:56:16;54.38;;;20.30;;
35562;SDS011;21665;40.108;18.302;2023-03-01T09:59:04;65.55;;;21.60;;
35562;SDS011;21665;40.108;18.302;2023-03-01T10:01:55;62.78;;;20.67;;
35562;SDS011;21665;40.108;18.302;2023-03-01T10:09:43;72.13;;;21.85;;
35562;SDS011;21665;40.108;18.302;2023-03-01T10:12:12;61.67;;;18.25;;
35562;SDS011;21665;40.108;18.302;2023-03-01T10:20:42;68.35;;;19.77;;
35562;SDS011;21665;40.108;18.302;2023-03-01T10:23:17;48.03;;;18.83;;
35562;SDS011;21665;40.108;18.302;2023-03-01T10:26:03;70.80;;;19.33;;
35562;SDS011;21665;40.108;18.302;2023-03-01T10:29:11;79.63;;;20.85;;
35562;SDS011;21665;40.108;18.302;2023-03-01T10:31:50;55.55;;;18.27;;
35562;SDS011;21665;40.108;18.302;2023-03-01T10:34:40;55.42;;;18.45;;
35562;SDS011;21665;40.108;18.302;2023-03-01T10:56:12;58.42;;;20.20;;
35562;SDS011;21665;40.108;18.302;2023-03-01T10:58:57;68.05;;;20.38;;
35562;SDS011;21665;40.108;18.302;2023-03-01T11:05:02;59.88;;;19.63;;
35562;SDS011;21665;40.108;18.302;2023-03-01T11:07:47;61.55;;;21.02;;
35562;SDS011;21665;40.108;18.302;2023-03-01T11:10:26;63.00;;;19.48;;
35562;SDS011;21665;40.108;18.302;2023-03-01T11:13:08;83.30;;;27.85;;
35562;SDS011;21665;40.108;18.302;2023-03-01T11:15:58;62.38;;;25.00;;
35562;SDS011;21665;40.108;18.302;2023-03-01T11:24:52;62.78;;;22.52;;
35562;SDS011;21665;40.108;18.302;2023-03-01T11:27:31;58.45;;;21.63;;
35562;SDS011;21665;40.108;18.302;2023-03-01T11:36:37;61.75;;;22.63;;
35562;SDS011;21665;40.108;18.302;2023-03-01T11:39:51;63.00;;;23.80;;
35562;SDS011;21665;40.108;18.302;2023-03-01T11:45:31;56.00;;;22.33;;
35562;SDS011;21665;40.108;18.302;2023-03-01T11:48:41;47.70;;;21.00;;
35562;SDS011;21665;40.108;18.302;2023-03-01T11:52:21;47.75;;;20.85;;
35562;SDS011;21665;40.108;18.302;2023-03-01T11:55:36;46.85;;;19.88;;
35562;SDS011;21665;40.108;18.302;2023-03-01T11:59:03;59.05;;;21.15;;
35562;SDS011;21665;40.108;18.302;2023-03-01T12:19:33;63.90;;;21.30;;
35562;SDS011;21665;40.108;18.302;2023-03-01T12:22:30;68.63;;;23.45;;
35562;SDS011;21665;40.108;18.302;2023-03-01T12:31:16;61.50;;;20.52;;
35562;SDS011;21665;40.108;18.302;2023-03-01T12:36:49;62.58;;;21.10;;
35562;SDS011;21665;40.108;18.302;2023-03-01T12:47:54;66.45;;;20.42;;
35562;SDS011;21665;40.108;18.302;2023-03-01T12:50:37;62.53;;;20.60;;
35562;SDS011;21665;40.108;18.302;2023-03-01T12:53:15;58.05;;;21.20;;
35562;SDS011;21665;40.108;18.302;2023-03-01T12:58:21;53.80;;;20.40;;
35562;SDS011;21665;40.108;18.302;2023-03-01T13:40:04;58.33;;;20.42;;
35562;SDS011;21665;40.108;18.302;2023-03-01T13:43:37;58.70;;;21.27;;
35562;SDS011;21665;40.108;18.302;2023-03-01T13:46:20;52.95;;;20.67;;
35562;SDS011;21665;40.108;18.302;2023-03-01T13:49:04;52.40;;;22.30;;
35562;SDS011;21665;40.108;18.302;2023-03-01T13:54:52;49.63;;;22.80;;
35562;SDS011;21665;40.108;18.302;2023-03-01T13:57:18;66.07;;;22.50;;
35562;SDS011;21665;40.108;18.302;2023-03-01T13:59:51;70.28;;;22.98;;
35562;SDS011;21665;40.108;18.302;2023-03-01T14:02:17;50.35;;;21.42;;
35562;SDS011;21665;40.108;18.302;2023-03-01T14:04:44;56.38;;;21.52;;
35562;SDS011;21665;40.108;18.302;2023-03-01T14:07:23;61.13;;;22.05;;
35562;SDS011;21665;40.108;18.302;2023-03-01T14:09:58;48.03;;;22.10;;
35562;SDS011;21665;40.108;18.302;2023-03-01T14:21:18;56.70;;;21.33;;
35562;SDS011;21665;40.108;18.302;2023-03-01T14:23:47;52.47;;;20.33;;
35562;SDS011;21665;40.108;18.302;2023-03-01T14:26:17;55.85;;;21.92;;
35562;SDS011;21665;40.108;18.302;2023-03-01T14:29:26;59.17;;;22.25;;
35562;SDS011;21665;40.108;18.302;2023-03-01T14:32:08;58.30;;;21.95;;
35562;SDS011;21665;40.108;18.302;2023-03-01T14:34:55;48.70;;;20.35;;
35562;SDS011;21665;40.108;18.302;2023-03-01T14:37:27;60.00;;;21.13;;
35562;SDS011;21665;40.108;18.302;2023-03-01T14:39:58;46.33;;;19.73;;
35562;SDS011;21665;40.108;18.302;2023-03-01T14:42:34;44.00;;;19.42;;
35562;SDS011;21665;40.108;18.302;2023-03-01T14:45:01;35.45;;;18.35;;
35562;SDS011;21665;40.108;18.302;2023-03-01T14:47:30;41.40;;;21.67;;
35562;SDS011;21665;40.108;18.302;2023-03-01T14:50:03;44.97;;;22.02;;
35562;SDS011;21665;40.108;18.302;2023-03-01T14:52:41;47.55;;;19.60;;
35562;SDS011;21665;40.108;18.302;2023-03-01T14:55:15;45.35;;;19.65;;
35562;SDS011;21665;40.108;18.302;2023-03-01T15:00:17;41.03;;;19.38;;
35562;SDS011;21665;40.108;18.302;2023-03-01T15:02:55;39.33;;;19.13;;
35562;SDS011;21665;40.108;18.302;2023-03-01T15:05:28;38.88;;;19.58;;
35562;SDS011;21665;40.108;18.302;2023-03-01T15:07:56;48.97;;;20.08;;
35562;SDS011;21665;40.108;18.302;2023-03-01T15:10:26;40.15;;;19.13;;
35562;SDS011;21665;40.108;18.302;2023-03-01T15:12:55;41.88;;;18.40;;
35562;SDS011;21665;40.108;18.302;2023-03-01T15:17:56;39.40;;;18.27;;
35562;SDS011;21665;40.108;18.302;2023-03-01T15:20:29;42.13;;;18.90;;
35562;SDS011;21665;40.108;18.302;2023-03-01T15:23:00;33.13;;;18.13;;
35562;SDS011;21665;40.108;18.302;2023-03-01T15:25:29;32.92;;;18.27;;
35562;SDS011;21665;40.108;18.302;2023-03-01T15:27:58;38.85;;;19.70;;
35562;SDS011;21665;40.108;18.302;2023-03-01T15:30:28;39.03;;;19.35;;
35562;SDS011;21665;40.108;18.302;2023-03-01T15:36:04;49.17;;;18.38;;
35562;SDS011;21665;40.108;18.302;2023-03-01T15:42:12;38.60;;;19.13;;
35562;SDS011;21665;40.108;18.302;2023-03-01T15:45:21;39.08;;;18.10;;
35562;SDS011;21665;40.108;18.302;2023-03-01T15:50:39;32.22;;;19.27;;
35562;SDS011;21665;40.108;18.302;2023-03-01T15:53:11;40.33;;;19.10;;
35562;SDS011;21665;40.108;18.302;2023-03-01T15:55:45;40.90;;;19.95;;
35562;SDS011;21665;40.108;18.302;2023-03-01T15:58:16;28.50;;;18.37;;
35562;SDS011;21665;40.108;18.302;2023-03-01T16:03:21;49.65;;;20.15;;
35562;SDS011;21665;40.108;18.302;2023-03-01T16:06:13;36.45;;;19.88;;
35562;SDS011;21665;40.108;18.302;2023-03-01T16:08:52;38.85;;;20.80;;
35562;SDS011;21665;40.108;18.302;2023-03-01T16:11:31;42.75;;;21.25;;
35562;SDS011;21665;40.108;18.302;2023-03-01T16:14:07;30.55;;;20.67;;
35562;SDS011;21665;40.108;18.302;2023-03-01T16:16:35;59.60;;;25.20;;
35562;SDS011;21665;40.108;18.302;2023-03-01T16:19:01;38.05;;;20.25;;
35562;SDS011;21665;40.108;18.302;2023-03-01T16:21:28;44.40;;;23.63;;
35562;SDS011;21665;40.108;18.302;2023-03-01T16:23:57;40.08;;;19.33;;
35562;SDS011;21665;40.108;18.302;2023-03-01T16:27:21;42.75;;;19.75;;
35562;SDS011;21665;40.108;18.302;2023-03-01T16:29:51;38.50;;;19.33;;
35562;SDS011;21665;40.108;18.302;2023-03-01T16:32:20;36.47;;;18.33;;
35562;SDS011;21665;40.108;18.302;2023-03-01T16:34:47;41.13;;;18.85;;
35562;SDS011;21665;40.108;18.302;2023-03-01T16:37:14;45.17;;;20.85;;
35562;SDS011;21665;40.108;18.302;2023-03-01T16:39:42;42.60;;;21.10;;
35562;SDS011;21665;40.108;18.302;2023-03-01T16:42:08;41.85;;;20.90;;
35562;SDS011;21665;40.108;18.302;2023-03-01T16:44:34;50.67;;;19.17;;
35562;SDS011;21665;40.108;18.302;2023-03-01T16:47:00;33.50;;;17.67;;
35562;SDS011;21665;40.108;18.302;2023-03-01T16:49:27;50.90;;;21.77;;
35562;SDS011;21665;40.108;18.302;2023-03-01T16:51:53;51.10;;;22.83;;
35562;SDS011;21665;40.108;18.302;2023-03-01T16:54:20;56.20;;;19.48;;
35562;SDS011;21665;40.108;18.302;2023-03-01T16:56:46;45.58;;;20.02;;
35562;SDS011;21665;40.108;18.302;2023-03-01T16:59:12;38.00;;;21.45;;
35562;SDS011;21665;40.108;18.302;2023-03-01T17:01:39;46.65;;;20.40;;
35562;SDS011;21665;40.108;18.302;2023-03-01T17:04:06;46.03;;;20.70;;
35562;SDS011;21665;40.108;18.302;2023-03-01T17:06:35;39.40;;;20.92;;
35562;SDS011;21665;40.108;18.302;2023-03-01T17:09:02;43.00;;;16.77;;
35562;SDS011;21665;40.108;18.302;2023-03-01T17:11:28;43.78;;;18.45;;
35562;SDS011;21665;40.108;18.302;2023-03-01T17:13:55;37.03;;;15.95;;
35562;SDS011;21665;40.108;18.302;2023-03-01T17:16:25;31.60;;;16.48;;
35562;SDS011;21665;40.108;18.302;2023-03-01T17:19:07;35.53;;;15.77;;
35562;SDS011;21665;40.108;18.302;2023-03-01T17:21:36;46.95;;;22.05;;
35562;SDS011;21665;40.108;18.302;2023-03-01T17:24:02;55.67;;;29.52;;
35562;SDS011;21665;40.108;18.302;2023-03-01T17:26:29;38.13;;;21.60;;
35562;SDS011;21665;40.108;18.302;2023-03-01T17:28:56;42.33;;;18.25;;
35562;SDS011;21665;40.108;18.302;2023-03-01T17:31:26;37.13;;;19.27;;
35562;SDS011;21665;40.108;18.302;2023-03-01T17:33:55;41.38;;;17.17;;
35562;SDS011;21665;40.108;18.302;2023-03-01T17:36:22;37.85;;;17.15;;
35562;SDS011;21665;40.108;18.302;2023-03-01T17:38:51;34.72;;;16.80;;
35562;SDS011;21665;40.108;18.302;2023-03-01T17:41:18;33.65;;;15.68;;
35562;SDS011;21665;40.108;18.302;2023-03-01T17:46:33;31.15;;;15.68;;
35562;SDS011;21665;40.108;18.302;2023-03-01T17:49:00;24.48;;;12.88;;
35562;SDS011;21665;40.108;18.302;2023-03-01T17:51:27;27.58;;;14.18;;
35562;SDS011;21665;40.108;18.302;2023-03-01T17:53:53;28.77;;;14.48;;
35562;SDS011;21665;40.108;18.302;2023-03-01T17:56:20;33.58;;;14.75;;
35562;SDS011;21665;40.108;18.302;2023-03-01T17:58:46;28.10;;;14.15;;
35562;SDS011;21665;40.108;18.302;2023-03-01T18:01:14;41.25;;;15.60;;
35562;SDS011;21665;40.108;18.302;2023-03-01T18:03:45;28.80;;;15.65;;
35562;SDS011;21665;40.108;18.302;2023-03-01T18:06:15;33.72;;;15.27;;
35562;SDS011;21665;40.108;18.302;2023-03-01T18:08:45;39.72;;;15.93;;
35562;SDS011;21665;40.108;18.302;2023-03-01T18:11:20;33.65;;;17.08;;
35562;SDS011;21665;40.108;18.302;2023-03-01T18:13:48;28.63;;;15.15;;
35562;SDS011;21665;40.108;18.302;2023-03-01T18:16:16;38.10;;;16.45;;
35562;SDS011;21665;40.108;18.302;2023-03-01T18:18:44;32.45;;;15.18;;
35562;SDS011;21665;40.108;18.302;2023-03-01T18:21:11;36.95;;;14.55;;
35562;SDS011;21665;40.108;18.302;2023-03-01T18:23:38;31.23;;;13.90;;
35562;SDS011;21665;40.108;18.302;2023-03-01T18:26:09;27.65;;;14.52;;
35562;SDS011;21665;40.108;18.302;2023-03-01T18:28:37;36.97;;;15.32;;
35562;SDS011;21665;40.108;18.302;2023-03-01T18:31:05;37.45;;;15.63;;
35562;SDS011;21665;40.108;18.302;2023-03-01T18:33:35;34.65;;;16.33;;
35562;SDS011;21665;40.108;18.302;2023-03-01T18:36:03;34.30;;;14.88;;
35562;SDS011;21665;40.108;18.302;2023-03-01T18:38:31;37.22;;;15.52;;
35562;SDS011;21665;40.108;18.302;2023-03-01T18:40:57;35.70;;;14.88;;
35562;SDS011;21665;40.108;18.302;2023-03-01T18:43:24;41.50;;;16.77;;
35562;SDS011;21665;40.108;18.302;2023-03-01T18:45:59;35.88;;;15.32;;
35562;SDS011;21665;40.108;18.302;2023-03-01T18:48:30;35.30;;;15.93;;
35562;SDS011;21665;40.108;18.302;2023-03-01T18:50:57;43.08;;;20.67;;
35562;SDS011;21665;40.108;18.302;2023-03-01T18:53:31;75.13;;;34.33;;
35562;SDS011;21665;40.108;18.302;2023-03-01T18:55:58;89.70;;;38.95;;
35562;SDS011;21665;40.108;18.302;2023-03-01T18:58:26;61.83;;;30.92;;
35562;SDS011;21665;40.108;18.302;2023-03-01T19:00:53;42.63;;;19.77;;
35562;SDS011;21665;40.108;18.302;2023-03-01T19:05:58;41.67;;;18.55;;
35562;SDS011;21665;40.108;18.302;2023-03-01T19:23:44;33.85;;;16.45;;
35562;SDS011;21665;40.108;18.302;2023-03-01T19:26:17;31.88;;;17.42;;
35562;SDS011;21665;40.108;18.302;2023-03-01T19:28:46;29.77;;;17.25;;
35562;SDS011;21665;40.108;18.302;2023-03-01T19:32:20;41.85;;;18.45;;
35562;SDS011;21665;40.108;18.302;2023-03-01T19:40:39;30.98;;;16.95;;
35562;SDS011;21665;40.108;18.302;2023-03-01T19:43:12;39.08;;;17.95;;
35562;SDS011;21665;40.108;18.302;2023-03-01T19:49:41;28.50;;;17.00;;
35562;SDS011;21665;40.108;18.302;2023-03-01T19:52:08;30.73;;;17.45;;
35562;SDS011;21665;40.108;18.302;2023-03-01T19:54:43;34.38;;;16.02;;
35562;SDS011;21665;40.108;18.302;2023-03-01T19:57:17;27.30;;;15.57;;
35562;SDS011;21665;40.108;18.302;2023-03-01T19:59:58;26.10;;;16.65;;
35562;SDS011;21665;40.108;18.302;2023-03-01T20:02:38;27.38;;;15.32;;
35562;SDS011;21665;40.108;18.302;2023-03-01T20:05:04;32.13;;;15.40;;
35562;SDS011;21665;40.108;18.302;2023-03-01T20:07:31;28.65;;;13.90;;
35562;SDS011;21665;40.108;18.302;2023-03-01T20:11:01;21.35;;;13.07;;
35562;SDS011;21665;40.108;18.302;2023-03-01T20:13:34;28.70;;;13.20;;
35562;SDS011;21665;40.108;18.302;2023-03-01T20:16:23;27.27;;;12.80;;
35562;SDS011;21665;40.108;18.302;2023-03-01T20:18:59;38.63;;;13.55;;
35562;SDS011;21665;40.108;18.302;2023-03-01T20:24:43;27.35;;;14.57;;
35562;SDS011;21665;40.108;18.302;2023-03-01T20:27:24;23.15;;;13.30;;
35562;SDS011;21665;40.108;18.302;2023-03-01T20:30:14;24.98;;;12.80;;
35562;SDS011;21665;40.108;18.302;2023-03-01T20:32:50;20.23;;;10.73;;
35562;SDS011;21665;40.108;18.302;2023-03-01T20:45:59;30.52;;;10.65;;
35562;SDS011;21665;40.108;18.302;2023-03-01T20:48:50;28.02;;;10.93;;
35562;SDS011;21665;40.108;18.302;2023-03-01T20:51:18;26.17;;;11.65;;
35562;SDS011;21665;40.108;18.302;2023-03-01T20:56:40;28.13;;;11.77;;
35562;SDS011;21665;40.108;18.302;2023-03-01T20:59:06;36.53;;;12.10;;
35562;SDS011;21665;40.108;18.302;2023-03-01T21:01:34;32.20;;;12.07;;
35562;SDS011;21665;40.108;18.302;2023-03-01T21:04:02;32.55;;;11.48;;
35562;SDS011;21665;40.108;18.302;2023-03-01T21:06:41;23.38;;;11.25;;
35562;SDS011;21665;40.108;18.302;2023-03-01T21:09:10;17.65;;;11.15;;
35562;SDS011;21665;40.108;18.302;2023-03-01T21:11:37;25.23;;;11.90;;
35562;SDS011;21665;40.108;18.302;2023-03-01T21:14:05;32.03;;;11.52;;
35562;SDS011;21665;40.108;18.302;2023-03-01T21:16:32;22.73;;;10.73;;
35562;SDS011;21665;40.108;18.302;2023-03-01T21:18:59;22.73;;;10.98;;
35562;SDS011;21665;40.108;18.302;2023-03-01T21:21:27;23.50;;;10.02;;
35562;SDS011;21665;40.108;18.302;2023-03-01T21:23:54;18.38;;;10.80;;
35562;SDS011;21665;40.108;18.302;2023-03-01T21:26:29;32.03;;;11.75;;
35562;SDS011;21665;40.108;18.302;2023-03-01T21:29:02;31.85;;;9.57;;
35562;SDS011;21665;40.108;18.302;2023-03-01T21:31:40;28.52;;;9.45;;
35562;SDS011;21665;40.108;18.302;2023-03-01T21:34:10;22.65;;;9.27;;
35562;SDS011;21665;40.108;18.302;2023-03-01T21:39:54;28.33;;;10.35;;
35562;SDS011;21665;40.108;18.302;2023-03-01T21:52:27;38.33;;;11.23;;
35562;SDS011;21665;40.108;18.302;2023-03-01T21:55:54;33.75;;;11.27;;
35562;SDS011;21665;40.108;18.302;2023-03-01T22:04:58;35.83;;;11.15;;
35562;SDS011;21665;40.108;18.302;2023-03-01T22:11:35;43.45;;;10.45;;
35562;SDS011;21665;40.108;18.302;2023-03-01T23:12:19;21.73;;;7.97;;
35562;SDS011;21665;40.108;18.302;2023-03-01T23:18:26;29.25;;;8.25;;
35562;SDS011;21665;40.108;18.302;2023-03-01T23:34:46;32.55;;;8.02;;
35562;SDS011;21665;40.108;18.302;2023-03-01T23:44:16;32.00;;;8.60;;
35562;SDS011;21665;40.108;18.302;2023-03-01T23:56:12;33.60;;;8.20;;
